Mahlon Sweet Field
KEUG : now visible

Airfield :











YOU CAN JOIN US ON...

 
LOGIN :

Register | Disclaimer

   EN    FR    IT 

 









Legend :    VFR   Marginal VFR   IFR   Intensive IFR   Very Intensive IFR
Visi :
Ceiling :
>= 8 km
>= 3000ft
5 to 8 km
1000 to 3000 ft
1500m to 5 km
500 to 1000 ft
800 to 1500m
200 to 500 ft
< 800m
< 200 ft
Symbols :   Thunderstorms  Fog  Heavy snow  Heavy precipitations  Wind > 20 kt






- Airport Elevation : 374 ft
- IATA code : EUG


KEUG - Mahlon Sweet Field

CURRENT METAR :
  • 250754Z AUTO 23006KT 10SM SCT060 13/11 A3000 RMK AO2 SLP156 T01280111 402220122

EXPIRED METARs :
  • 250654Z AUTO 20006KT 10SM CLR 13/11 A3000 RMK AO2 SLP157 T01330111
  • 250554Z 21003KT 10SM SCT060 13/11 A3002 RMK AO2 SLP164 T01330111 10211 20128 58009

TAF KEUG
Valid from the 25 at 06:00 until the 26 at 06:00 UTC


250520Z 2506/2606 19006KT P6SM SCT035 BKN200
TEMPO 2512/2515 4SM -RA BKN035
FM251500 18014G26KT P6SM -RA SCT028 OVC060
FM252200 20014G26KT P6SM -SHRA SCT022 OVC045
FM260200 20008KT P6SM -SHRA SCT024 OVC035
FM260500 22005KT P6SM -SHRA SCT015 BKN022
KZSE FIR / North America



MET'MAP, your aeronautical weather chart ! - Copyright ORBIFLY December 2007 - Disclaimer

ORBIFLY MET'MAP TEAM :

Programming & Development : Alexandra Zaïnal
Concept & original design : Baudouin d'Aumeries
Assistance for programming : Marc-Olivier Méhu
Technical & hardware support : Manuel Goepfert

Contact : metmap@orbifly.com




SOURCES & CREDITS :

   NOAA       Earth
Advisory